createdAt,value
2018-03-20T00:02:08.973Z,-1.60
2018-03-20T00:04:36.573Z,-1.70
2018-03-20T00:07:04.199Z,-1.70
2018-03-20T00:09:32.622Z,-1.80
2018-03-20T00:12:01.043Z,-1.90
2018-03-20T00:14:28.689Z,-1.90
2018-03-20T00:16:57.058Z,-1.90
2018-03-20T00:19:26.388Z,-1.90
2018-03-20T00:21:54.763Z,-1.90
2018-03-20T00:24:23.171Z,-1.90
2018-03-20T00:26:50.926Z,-1.90
2018-03-20T00:29:18.578Z,-1.90
2018-03-20T00:31:47.072Z,-1.80
2018-03-20T00:34:14.741Z,-1.80
2018-03-20T00:36:42.611Z,-1.80
2018-03-20T00:39:11.403Z,-1.70
2018-03-20T00:41:40.869Z,-1.70
2018-03-20T00:44:12.007Z,-1.70
2018-03-20T00:46:40.649Z,-1.70
2018-03-20T00:49:08.361Z,-1.70
2018-03-20T00:51:36.149Z,-1.70
2018-03-20T00:54:05.292Z,-1.60
2018-03-20T00:56:33.091Z,-1.60
2018-03-20T00:59:00.854Z,-1.60
2018-03-20T01:01:28.851Z,-1.50
2018-03-20T01:03:56.532Z,-1.50
2018-03-20T01:06:24.174Z,-1.40
2018-03-20T01:08:52.540Z,-1.40
2018-03-20T01:11:20.168Z,-1.40
2018-03-20T01:13:48.638Z,-1.40
2018-03-20T01:16:16.326Z,-1.40
2018-03-20T01:18:44.167Z,-1.30
2018-03-20T01:21:11.880Z,-1.20
2018-03-20T01:23:39.650Z,-1.20
2018-03-20T01:26:07.346Z,-1.10
2018-03-20T01:28:38.371Z,-0.90
2018-03-20T01:31:07.159Z,-0.80
2018-03-20T01:33:36.385Z,-0.70
2018-03-20T01:36:04.139Z,-0.60
2018-03-20T01:38:32.140Z,-0.60
2018-03-20T01:40:59.760Z,-0.50
2018-03-20T01:43:28.186Z,-0.50
2018-03-20T01:45:55.978Z,-0.50
2018-03-20T01:48:23.866Z,-0.50
2018-03-20T01:50:51.614Z,-0.40
2018-03-20T01:53:19.371Z,-0.40
2018-03-20T01:55:47.560Z,-0.30
2018-03-20T01:58:15.988Z,-0.30
2018-03-20T02:00:44.136Z,-0.30
2018-03-20T02:03:12.504Z,-0.20
2018-03-20T02:05:40.094Z,-0.20
2018-03-20T02:08:08.493Z,-0.10
2018-03-20T02:10:36.861Z,-0.10
2018-03-20T02:13:04.475Z,-0.10
2018-03-20T02:15:32.137Z,0.00
2018-03-20T02:17:59.727Z,0.00
2018-03-20T02:20:27.345Z,-0.10
2018-03-20T02:22:55.735Z,0.00
2018-03-20T02:25:23.395Z,0.00
2018-03-20T02:27:51.749Z,0.10
2018-03-20T02:30:20.121Z,0.20
2018-03-20T02:32:47.758Z,0.20
2018-03-20T02:35:15.365Z,0.20
2018-03-20T02:37:42.990Z,0.20
2018-03-20T02:40:10.612Z,0.20
2018-03-20T02:42:39.044Z,0.30
2018-03-20T02:45:06.769Z,0.30
2018-03-20T02:47:35.612Z,0.30
2018-03-20T02:50:03.268Z,0.30
2018-03-20T02:52:30.899Z,0.30
2018-03-20T02:54:59.294Z,0.40
2018-03-20T02:57:26.871Z,0.40
2018-03-20T02:59:54.967Z,0.40
2018-03-20T03:02:22.581Z,0.40
2018-03-20T03:04:50.941Z,0.40
2018-03-20T03:07:18.556Z,0.30
2018-03-20T03:09:46.218Z,0.40
2018-03-20T03:12:13.799Z,0.40
2018-03-20T03:14:41.408Z,0.40
2018-03-20T03:17:09.084Z,0.40
2018-03-20T03:19:36.730Z,0.40
2018-03-20T03:22:04.426Z,0.40
2018-03-20T03:24:32.033Z,0.40
2018-03-20T03:26:59.686Z,0.50
2018-03-20T03:29:27.299Z,0.50
2018-03-20T03:31:54.933Z,0.60
2018-03-20T03:34:22.569Z,0.60
2018-03-20T03:36:51.247Z,0.70
2018-03-20T03:39:18.851Z,0.60
2018-03-20T03:41:46.502Z,0.70
2018-03-20T03:44:14.115Z,0.80
2018-03-20T03:46:41.705Z,0.80
2018-03-20T03:49:10.100Z,0.80
2018-03-20T03:51:38.540Z,0.80
2018-03-20T03:54:06.120Z,0.80
2018-03-20T03:56:33.722Z,0.80
2018-03-20T03:59:01.370Z,0.80
2018-03-20T04:01:29.007Z,0.90
2018-03-20T04:03:56.576Z,0.80
2018-03-20T04:06:24.254Z,0.90
2018-03-20T04:08:52.322Z,0.90
2018-03-20T04:11:19.946Z,1.00
2018-03-20T04:13:47.735Z,1.00
2018-03-20T04:16:15.378Z,1.10
2018-03-20T04:18:42.970Z,1.10
2018-03-20T04:21:10.591Z,1.10
2018-03-20T04:23:38.948Z,1.20
2018-03-20T04:26:06.556Z,1.20
2018-03-20T04:28:34.164Z,1.30
2018-03-20T04:31:02.659Z,1.20
2018-03-20T04:33:30.241Z,1.20
2018-03-20T04:35:58.601Z,1.20
2018-03-20T04:38:26.174Z,1.20
2018-03-20T04:40:53.762Z,1.20
2018-03-20T04:43:22.148Z,1.20
2018-03-20T04:45:50.538Z,1.30
2018-03-20T04:48:18.151Z,1.30
2018-03-20T04:50:45.784Z,1.20
2018-03-20T04:53:13.392Z,1.20
2018-03-20T04:55:41.020Z,1.20
2018-03-20T04:58:08.608Z,1.20
2018-03-20T05:00:36.192Z,1.30
2018-03-20T05:03:03.811Z,1.30
2018-03-20T05:05:31.422Z,1.40
2018-03-20T05:07:59.012Z,1.50
2018-03-20T05:10:26.597Z,1.50
2018-03-20T05:12:54.949Z,1.60
2018-03-20T05:15:22.575Z,1.60
2018-03-20T05:18:04.907Z,1.60
2018-03-20T05:20:50.006Z,1.60
2018-03-20T05:23:18.956Z,1.60
2018-03-20T05:25:46.632Z,1.60
2018-03-20T05:28:14.248Z,1.60
2018-03-20T05:30:41.891Z,1.60
2018-03-20T05:33:09.508Z,1.60
2018-03-20T05:35:37.170Z,1.60
2018-03-20T05:38:04.773Z,1.60
2018-03-20T05:40:33.236Z,1.60
2018-03-20T05:43:00.851Z,1.60
2018-03-20T05:45:29.229Z,1.50
2018-03-20T05:48:03.259Z,1.50
2018-03-20T05:50:46.551Z,1.50
2018-03-20T05:53:14.940Z,1.30
2018-03-20T05:55:43.299Z,1.30
2018-03-20T05:58:10.920Z,1.30
2018-03-20T06:00:38.594Z,1.20
2018-03-20T06:03:06.222Z,1.20
2018-03-20T06:05:33.820Z,1.30
2018-03-20T06:08:01.504Z,1.30
2018-03-20T06:10:29.142Z,1.40
2018-03-20T06:12:56.758Z,1.50
2018-03-20T06:15:24.368Z,1.60
2018-03-20T06:17:52.008Z,1.70
2018-03-20T06:20:19.616Z,1.80
2018-03-20T06:22:47.245Z,1.90
2018-03-20T06:25:14.865Z,1.90
2018-03-20T06:27:42.512Z,2.00
2018-03-20T06:30:10.178Z,2.10
2018-03-20T06:32:37.840Z,2.20
2018-03-20T06:35:05.487Z,2.20
2018-03-20T06:37:33.930Z,2.30
2018-03-20T06:40:01.617Z,2.30
2018-03-20T06:42:29.241Z,2.30
2018-03-20T06:44:56.916Z,2.40
2018-03-20T06:47:24.551Z,2.50
2018-03-20T06:49:52.181Z,2.60
2018-03-20T06:52:19.913Z,2.60
2018-03-20T06:54:47.577Z,2.80
2018-03-20T06:57:15.213Z,2.80
2018-03-20T06:59:42.978Z,2.80
2018-03-20T07:02:10.833Z,2.80
2018-03-20T07:04:38.526Z,2.80
2018-03-20T07:07:06.156Z,2.80
2018-03-20T07:09:34.569Z,3.00
2018-03-20T07:12:02.202Z,2.90
2018-03-20T07:14:29.851Z,3.10
2018-03-20T07:16:58.463Z,3.10
2018-03-20T07:19:26.071Z,3.10
2018-03-20T07:21:53.677Z,3.20
2018-03-20T07:24:21.312Z,3.20
2018-03-20T07:26:48.920Z,3.20
2018-03-20T07:29:16.542Z,3.30
2018-03-20T07:31:44.204Z,3.40
2018-03-20T07:34:11.823Z,3.40
2018-03-20T07:36:39.564Z,3.40
2018-03-20T07:39:07.241Z,3.40
2018-03-20T07:41:34.866Z,3.40
2018-03-20T07:44:02.486Z,3.50
2018-03-20T07:46:30.101Z,3.50
2018-03-20T07:48:58.048Z,3.50
2018-03-20T07:51:27.259Z,3.70
2018-03-20T07:53:54.844Z,3.70
2018-03-20T07:56:22.656Z,3.70
2018-03-20T07:58:50.273Z,3.70
2018-03-20T08:01:17.881Z,3.80
2018-03-20T08:03:45.468Z,3.90
2018-03-20T08:06:13.069Z,3.90
2018-03-20T08:08:40.737Z,4.00
2018-03-20T08:11:09.426Z,4.10
2018-03-20T08:13:37.271Z,4.10
2018-03-20T08:16:05.811Z,4.20
2018-03-20T08:18:34.817Z,4.20
2018-03-20T08:21:03.108Z,4.30
2018-03-20T08:23:30.768Z,4.40
2018-03-20T08:25:58.392Z,4.40
2018-03-20T08:28:26.074Z,4.40
2018-03-20T08:30:53.756Z,4.40
2018-03-20T08:33:21.367Z,4.40
2018-03-20T08:35:50.154Z,4.50
2018-03-20T08:38:18.779Z,4.60
2018-03-20T08:40:46.513Z,4.60
2018-03-20T08:43:14.163Z,4.60
2018-03-20T08:45:41.779Z,4.70
2018-03-20T08:48:09.387Z,4.70
2018-03-20T08:50:37.049Z,4.70
2018-03-20T08:53:04.689Z,4.80
2018-03-20T08:55:32.541Z,4.80
2018-03-20T08:58:00.899Z,4.90
2018-03-20T09:00:28.601Z,4.90
2018-03-20T09:02:56.318Z,5.00
2018-03-20T09:05:24.032Z,5.00
2018-03-20T09:07:51.690Z,5.00
2018-03-20T09:10:19.334Z,5.10
2018-03-20T09:12:47.032Z,5.10
2018-03-20T09:15:16.204Z,5.20
2018-03-20T09:17:46.932Z,5.30
2018-03-20T09:20:14.657Z,5.20
2018-03-20T09:22:42.329Z,5.30
2018-03-20T09:25:09.931Z,5.50
2018-03-20T09:27:37.571Z,5.60
2018-03-20T09:30:05.265Z,5.70
2018-03-20T09:32:32.885Z,5.70
2018-03-20T09:35:00.491Z,5.90
2018-03-20T09:37:28.746Z,5.90
2018-03-20T09:39:56.333Z,6.00
2018-03-20T09:42:23.954Z,6.20
2018-03-20T09:44:51.563Z,6.20
2018-03-20T09:47:20.046Z,6.10
2018-03-20T09:49:48.554Z,6.20
2018-03-20T09:52:18.390Z,6.40
2018-03-20T09:54:46.054Z,6.40
2018-03-20T09:57:13.858Z,6.40
2018-03-20T09:59:41.514Z,6.50
2018-03-20T10:02:09.130Z,6.50
2018-03-20T10:04:36.783Z,6.50
2018-03-20T10:07:05.175Z,6.70
2018-03-20T10:09:32.805Z,6.70
2018-03-20T10:12:00.457Z,6.80
2018-03-20T10:14:28.085Z,6.80
2018-03-20T10:16:56.886Z,7.00
2018-03-20T10:19:25.386Z,7.20
2018-03-20T10:21:53.011Z,7.20
2018-03-20T10:24:20.666Z,7.20
2018-03-20T10:26:48.291Z,7.30
2018-03-20T10:29:15.969Z,7.30
2018-03-20T10:31:43.560Z,7.20
2018-03-20T10:34:11.352Z,7.20
2018-03-20T10:36:38.954Z,7.20
2018-03-20T10:39:07.448Z,7.40
2018-03-20T10:41:35.311Z,7.50
2018-03-20T10:44:03.106Z,7.50
2018-03-20T10:46:31.599Z,7.60
2018-03-20T10:48:59.291Z,7.60
2018-03-20T10:51:26.918Z,8.00
2018-03-20T10:53:54.676Z,8.20
2018-03-20T10:56:23.301Z,8.30
2018-03-20T10:58:50.935Z,8.30
2018-03-20T11:01:24.321Z,8.40
2018-03-20T11:03:51.961Z,8.50
2018-03-20T11:06:19.605Z,8.60
2018-03-20T11:08:47.321Z,8.50
2018-03-20T11:11:14.995Z,8.40
2018-03-20T11:13:42.680Z,8.50
2018-03-20T11:16:10.304Z,8.60
2018-03-20T11:18:38.054Z,8.70
2018-03-20T11:21:07.265Z,8.90
2018-03-20T11:23:34.906Z,8.70
2018-03-20T11:26:02.603Z,8.60
2018-03-20T11:28:30.302Z,8.90
2018-03-20T11:30:57.960Z,9.00
2018-03-20T11:33:25.598Z,9.10
2018-03-20T11:35:53.284Z,9.30
2018-03-20T11:38:21.032Z,9.20
2018-03-20T11:40:49.588Z,9.40
2018-03-20T11:43:17.691Z,9.40
2018-03-20T11:45:45.420Z,9.60
2018-03-20T11:48:13.033Z,9.70
2018-03-20T11:50:41.424Z,9.60
2018-03-20T11:53:10.690Z,9.70
2018-03-20T11:55:38.289Z,9.60
2018-03-20T11:58:06.821Z,9.70
2018-03-20T12:00:34.543Z,9.90
2018-03-20T12:03:03.225Z,9.70
2018-03-20T12:05:31.630Z,9.80
2018-03-20T12:07:59.342Z,9.80
2018-03-20T12:10:27.373Z,9.90
2018-03-20T12:12:55.933Z,10.00
2018-03-20T12:15:24.433Z,10.20
2018-03-20T12:17:53.933Z,10.10
2018-03-20T12:20:21.530Z,10.30
2018-03-20T12:22:50.304Z,10.10
2018-03-20T12:25:18.701Z,10.10
2018-03-20T12:27:47.314Z,10.10
2018-03-20T12:30:14.945Z,10.20
2018-03-20T12:32:45.268Z,10.40
2018-03-20T12:35:13.324Z,10.40
2018-03-20T12:37:41.025Z,10.10
2018-03-20T12:40:10.184Z,10.20
2018-03-20T12:42:44.483Z,10.20
2018-03-20T12:45:12.557Z,9.60
2018-03-20T12:47:40.703Z,9.90
2018-03-20T12:50:08.289Z,10.10
2018-03-20T12:52:36.076Z,10.00
2018-03-20T12:55:03.922Z,10.10
2018-03-20T12:57:31.556Z,10.20
2018-03-20T12:59:59.988Z,10.30
2018-03-20T13:02:28.396Z,10.30
2018-03-20T13:04:56.000Z,10.70
2018-03-20T13:07:23.574Z,10.50
2018-03-20T13:09:52.072Z,10.40
2018-03-20T13:12:19.736Z,10.40
2018-03-20T13:14:47.325Z,10.40
2018-03-20T13:17:15.264Z,10.30
2018-03-20T13:19:42.897Z,10.50
2018-03-20T13:22:12.530Z,10.30
2018-03-20T13:24:40.849Z,10.40
2018-03-20T13:27:08.677Z,10.30
2018-03-20T13:29:36.344Z,10.30
2018-03-20T13:32:05.423Z,10.50
2018-03-20T13:34:34.004Z,10.50
2018-03-20T13:37:01.599Z,10.70
2018-03-20T13:39:29.246Z,10.70
2018-03-20T13:41:57.737Z,10.80
2018-03-20T13:44:26.188Z,10.80
2018-03-20T13:46:53.968Z,10.80
2018-03-20T13:49:21.654Z,11.00
2018-03-20T13:51:50.116Z,10.50
2018-03-20T13:54:17.794Z,10.50
2018-03-20T13:56:45.523Z,10.30
2018-03-20T13:59:13.154Z,10.30
2018-03-20T14:01:40.750Z,10.40
2018-03-20T14:04:08.417Z,10.40
2018-03-20T14:06:35.979Z,10.40
2018-03-20T14:09:03.837Z,10.30
2018-03-20T14:11:32.385Z,10.80
2018-03-20T14:14:00.752Z,10.60
2018-03-20T14:16:28.369Z,10.50
2018-03-20T14:18:56.153Z,10.50
2018-03-20T14:21:23.769Z,10.30
2018-03-20T14:23:52.354Z,10.40
2018-03-20T14:26:20.167Z,10.40
2018-03-20T14:28:47.909Z,10.50
2018-03-20T14:31:16.285Z,11.00
2018-03-20T14:33:44.756Z,11.30
2018-03-20T14:36:14.032Z,11.30
2018-03-20T14:38:42.398Z,11.20
2018-03-20T14:41:10.712Z,11.30
2018-03-20T14:43:38.395Z,11.10
2018-03-20T14:46:06.960Z,11.50
2018-03-20T14:48:34.580Z,11.40
2018-03-20T14:51:02.270Z,11.40
2018-03-20T14:53:30.457Z,11.40
2018-03-20T14:55:58.049Z,11.70
2018-03-20T14:58:26.561Z,11.60
2018-03-20T15:00:54.818Z,11.60
2018-03-20T15:03:22.577Z,11.50
2018-03-20T15:05:51.219Z,11.60
2018-03-20T15:08:20.071Z,11.80
2018-03-20T15:10:47.808Z,12.30
2018-03-20T15:13:15.476Z,12.40
2018-03-20T15:15:43.546Z,13.10
2018-03-20T15:18:12.582Z,13.30
2018-03-20T15:20:40.966Z,13.10
2018-03-20T15:23:08.568Z,13.10
2018-03-20T15:25:36.251Z,12.60
2018-03-20T15:28:03.983Z,12.60
2018-03-20T15:30:32.421Z,12.20
2018-03-20T15:33:00.081Z,12.20
2018-03-20T15:35:27.720Z,12.60
2018-03-20T15:37:56.355Z,12.40
2018-03-20T15:40:24.018Z,12.40
2018-03-20T15:42:51.676Z,12.20
2018-03-20T15:45:20.178Z,12.00
2018-03-20T15:47:49.096Z,11.20
2018-03-20T15:50:17.598Z,11.50
2018-03-20T15:52:45.222Z,11.50
2018-03-20T15:55:12.836Z,11.90
2018-03-20T15:57:40.536Z,12.10
2018-03-20T16:00:10.214Z,11.90
2018-03-20T16:02:37.850Z,11.80
2018-03-20T16:05:05.470Z,11.30
2018-03-20T16:07:33.070Z,11.40
2018-03-20T16:10:01.722Z,11.30
2018-03-20T16:12:29.922Z,11.80
2018-03-20T16:14:57.620Z,11.40
2018-03-20T16:17:26.239Z,11.80
2018-03-20T16:19:54.065Z,11.80
2018-03-20T16:22:21.908Z,11.20
2018-03-20T16:24:49.539Z,11.20
2018-03-20T16:27:17.230Z,11.50
2018-03-20T16:29:44.991Z,11.40
2018-03-20T16:32:12.807Z,11.40
2018-03-20T16:34:40.521Z,11.60
2018-03-20T16:37:08.522Z,11.40
2018-03-20T16:39:36.262Z,11.20
2018-03-20T16:42:03.933Z,10.80
2018-03-20T16:44:31.850Z,10.70
2018-03-20T16:46:59.649Z,10.40
2018-03-20T16:49:27.349Z,9.80
2018-03-20T16:51:55.141Z,9.50
2018-03-20T16:54:22.793Z,9.40
2018-03-20T16:56:50.513Z,8.90
2018-03-20T16:59:19.004Z,8.30
2018-03-20T17:01:47.577Z,8.30
2018-03-20T17:04:16.034Z,8.10
2018-03-20T17:06:43.652Z,7.90
2018-03-20T17:09:12.040Z,7.60
2018-03-20T17:11:40.064Z,7.60
2018-03-20T17:14:07.767Z,7.50
2018-03-20T17:16:36.154Z,7.40
2018-03-20T17:19:03.798Z,7.40
2018-03-20T17:21:31.540Z,7.30
2018-03-20T17:23:59.178Z,7.20
2018-03-20T17:26:27.654Z,7.20
2018-03-20T17:28:56.104Z,7.00
2018-03-20T17:31:24.520Z,6.80
2018-03-20T17:33:52.283Z,6.90
2018-03-20T17:36:20.644Z,6.70
2018-03-20T17:38:49.754Z,6.60
2018-03-20T17:41:18.275Z,6.50
2018-03-20T17:43:45.917Z,6.50
2018-03-20T17:46:14.320Z,6.50
2018-03-20T17:48:41.979Z,6.40
2018-03-20T17:51:09.704Z,6.40
2018-03-20T17:53:37.303Z,6.30
2018-03-20T17:56:05.776Z,6.20
2018-03-20T17:58:33.393Z,6.20
2018-03-20T18:01:01.088Z,6.20
2018-03-20T18:03:28.671Z,6.10
2018-03-20T18:05:57.020Z,6.00
2018-03-20T18:08:24.639Z,5.90
2018-03-20T18:10:53.032Z,5.80
2018-03-20T18:13:20.683Z,5.80
2018-03-20T18:15:48.524Z,5.80
2018-03-20T18:18:16.104Z,5.80
2018-03-20T18:20:44.503Z,5.60
2018-03-20T18:23:12.881Z,5.60
2018-03-20T18:25:40.483Z,5.60
2018-03-20T18:28:08.170Z,5.60
2018-03-20T18:30:38.917Z,5.50
2018-03-20T18:33:07.273Z,5.40
2018-03-20T18:35:34.890Z,5.30
2018-03-20T18:38:02.562Z,5.30
2018-03-20T18:40:31.035Z,5.20
2018-03-20T18:42:58.690Z,5.20
2018-03-20T18:45:26.392Z,5.20
2018-03-20T18:47:54.802Z,5.00
2018-03-20T18:50:22.503Z,5.00
2018-03-20T18:52:50.456Z,5.00
2018-03-20T18:55:18.094Z,4.90
2018-03-20T18:57:46.469Z,4.90
2018-03-20T19:00:14.201Z,4.90
2018-03-20T19:02:43.963Z,4.80
2018-03-20T19:05:12.384Z,4.80
2018-03-20T19:07:40.135Z,4.80
2018-03-20T19:10:07.769Z,4.70
2018-03-20T19:12:35.717Z,4.70
2018-03-20T19:15:03.683Z,4.70
2018-03-20T19:17:32.224Z,4.60
2018-03-20T19:19:59.932Z,4.60
2018-03-20T19:22:27.690Z,4.50
2018-03-20T19:24:55.514Z,4.50
2018-03-20T19:27:23.412Z,4.50
2018-03-20T19:29:51.199Z,4.40
2018-03-20T19:32:19.155Z,4.40
2018-03-20T19:34:46.946Z,4.40
2018-03-20T19:37:15.134Z,4.30
2018-03-20T19:39:42.985Z,4.30
2018-03-20T19:42:10.714Z,4.20
2018-03-20T19:44:39.196Z,4.10
2018-03-20T19:47:06.971Z,4.00
2018-03-20T19:49:34.731Z,4.10
2018-03-20T19:52:02.513Z,4.00
2018-03-20T19:54:30.347Z,4.00
2018-03-20T19:56:58.161Z,4.00
2018-03-20T19:59:26.005Z,3.90
2018-03-20T20:01:53.742Z,3.80
2018-03-20T20:04:21.695Z,3.80
2018-03-20T20:06:49.597Z,3.70
2018-03-20T20:09:18.485Z,3.70
2018-03-20T20:11:46.534Z,3.60
2018-03-20T20:14:14.260Z,3.60
2018-03-20T20:16:42.052Z,3.50
2018-03-20T20:19:09.824Z,3.40
2018-03-20T20:21:38.562Z,3.40
2018-03-20T20:24:06.278Z,3.40
2018-03-20T20:26:34.026Z,3.40
2018-03-20T20:29:01.793Z,3.40
2018-03-20T20:31:29.596Z,3.30
2018-03-20T20:33:58.611Z,3.20
2018-03-20T20:36:26.329Z,3.20
2018-03-20T20:38:54.875Z,3.00
2018-03-20T20:41:22.541Z,3.00
2018-03-20T20:43:50.233Z,2.90
2018-03-20T20:46:18.864Z,2.80
2018-03-20T20:48:46.563Z,2.80
2018-03-20T20:51:14.220Z,2.70
2018-03-20T20:53:42.172Z,2.60
2018-03-20T20:56:09.855Z,2.50
2018-03-20T20:58:37.527Z,2.50
2018-03-20T21:01:05.192Z,2.40
2018-03-20T21:03:32.846Z,2.40
2018-03-20T21:06:00.516Z,2.30
2018-03-20T21:08:28.980Z,2.20
2018-03-20T21:10:57.360Z,2.20
2018-03-20T21:13:25.824Z,2.20
2018-03-20T21:15:54.234Z,2.20
2018-03-20T21:18:21.875Z,2.20
2018-03-20T21:20:49.564Z,2.20
2018-03-20T21:23:20.660Z,2.20
2018-03-20T21:25:48.284Z,2.20
2018-03-20T21:28:15.917Z,2.20
2018-03-20T21:30:43.539Z,2.20
2018-03-20T21:33:11.133Z,2.20
2018-03-20T21:35:38.738Z,2.20
2018-03-20T21:38:07.082Z,2.10
2018-03-20T21:40:34.655Z,2.10
2018-03-20T21:43:02.240Z,2.10
2018-03-20T21:45:29.895Z,2.10
2018-03-20T21:47:58.271Z,2.00
2018-03-20T21:50:25.983Z,1.90
2018-03-20T21:52:53.564Z,1.90
2018-03-20T21:55:21.186Z,1.90
2018-03-20T21:57:49.610Z,1.90
2018-03-20T22:00:17.246Z,1.90
2018-03-20T22:02:45.673Z,1.80
2018-03-20T22:05:13.293Z,1.80
2018-03-20T22:07:41.635Z,1.70
2018-03-20T22:10:09.310Z,1.70
2018-03-20T22:12:36.861Z,1.70
2018-03-20T22:15:04.487Z,1.70
2018-03-20T22:17:32.069Z,1.70
2018-03-20T22:19:59.668Z,1.60
2018-03-20T22:22:27.250Z,1.50
2018-03-20T22:24:54.829Z,1.50
2018-03-20T22:27:23.190Z,1.40
2018-03-20T22:29:50.780Z,1.40
2018-03-20T22:32:19.124Z,1.50
2018-03-20T22:34:46.706Z,1.50
2018-03-20T22:37:14.378Z,1.50
2018-03-20T22:39:41.969Z,1.40
2018-03-20T22:42:10.376Z,1.40
2018-03-20T22:44:37.997Z,1.40
2018-03-20T22:47:05.593Z,1.40
2018-03-20T22:49:33.206Z,1.40
2018-03-20T22:52:01.397Z,1.40
2018-03-20T22:54:29.010Z,1.40
2018-03-20T22:56:57.167Z,1.40
2018-03-20T22:59:24.770Z,1.40
2018-03-20T23:01:52.371Z,1.40
2018-03-20T23:04:20.000Z,1.40
2018-03-20T23:06:47.652Z,1.40
2018-03-20T23:09:15.229Z,1.40
2018-03-20T23:11:42.812Z,1.40
2018-03-20T23:14:10.393Z,1.40
2018-03-20T23:16:37.978Z,1.30
2018-03-20T23:19:05.589Z,1.30
2018-03-20T23:21:33.176Z,1.20
2018-03-20T23:24:00.824Z,1.10
2018-03-20T23:26:29.183Z,0.90
2018-03-20T23:28:56.767Z,0.90
2018-03-20T23:31:25.264Z,0.80
2018-03-20T23:33:52.871Z,0.80
2018-03-20T23:36:21.327Z,0.60
2018-03-20T23:38:48.940Z,0.60
2018-03-20T23:41:17.293Z,0.50
2018-03-20T23:43:44.874Z,0.50
2018-03-20T23:46:13.215Z,0.40
2018-03-20T23:48:40.769Z,0.40
2018-03-20T23:51:08.340Z,0.40
2018-03-20T23:53:35.897Z,0.40
2018-03-20T23:56:03.456Z,0.40
2018-03-20T23:58:31.043Z,0.40
